createdAt,value
2017-10-06T00:02:09.474Z,99.90
2017-10-06T00:04:38.439Z,99.90
2017-10-06T00:07:07.435Z,99.90
2017-10-06T00:09:36.384Z,99.90
2017-10-06T00:12:06.158Z,99.90
2017-10-06T00:14:35.125Z,99.90
2017-10-06T00:17:04.888Z,99.90
2017-10-06T00:19:34.637Z,99.90
2017-10-06T00:22:03.590Z,99.90
2017-10-06T00:24:33.365Z,99.90
2017-10-06T00:27:02.359Z,99.90
2017-10-06T00:29:31.722Z,99.90
2017-10-06T00:32:00.714Z,99.90
2017-10-06T00:34:29.697Z,99.90
2017-10-06T00:36:59.039Z,99.90
2017-10-06T00:39:28.003Z,99.90
2017-10-06T00:41:57.003Z,99.90
2017-10-06T00:44:26.000Z,99.90
2017-10-06T00:46:55.722Z,99.90
2017-10-06T00:49:25.205Z,99.90
2017-10-06T00:51:54.262Z,99.90
2017-10-06T00:54:23.637Z,99.90
2017-10-06T00:56:52.609Z,99.90
2017-10-06T00:59:21.616Z,99.90
2017-10-06T01:01:50.630Z,99.90
2017-10-06T01:04:19.668Z,99.90
2017-10-06T01:06:48.657Z,99.90
2017-10-06T01:09:17.608Z,99.90
2017-10-06T01:11:47.370Z,99.90
2017-10-06T01:14:16.344Z,99.90
2017-10-06T01:16:45.317Z,99.90
2017-10-06T01:19:15.053Z,99.90
2017-10-06T01:21:43.990Z,99.90
2017-10-06T01:24:12.992Z,99.90
2017-10-06T01:26:43.436Z,99.90
2017-10-06T01:29:13.247Z,99.90
2017-10-06T01:31:42.617Z,99.90
2017-10-06T01:34:11.636Z,99.90
2017-10-06T01:36:41.361Z,99.90
2017-10-06T01:39:10.362Z,99.90
2017-10-06T01:41:39.325Z,99.90
2017-10-06T01:44:08.364Z,99.90
2017-10-06T01:46:37.347Z,99.90
2017-10-06T01:49:06.344Z,99.90
2017-10-06T01:51:35.304Z,99.90
2017-10-06T01:54:04.654Z,99.90
2017-10-06T01:56:33.619Z,99.90
2017-10-06T01:59:02.636Z,99.90
2017-10-06T02:01:31.593Z,99.90
2017-10-06T02:04:00.953Z,99.90
2017-10-06T02:06:29.907Z,99.90
2017-10-06T02:08:59.667Z,99.90
2017-10-06T02:11:28.656Z,99.90
2017-10-06T02:13:58.400Z,99.90
2017-10-06T02:16:27.354Z,99.90
2017-10-06T02:18:57.152Z,99.90
2017-10-06T02:21:26.096Z,99.90
2017-10-06T02:23:55.128Z,99.90
2017-10-06T02:26:24.509Z,99.90
2017-10-06T02:28:53.488Z,99.90
2017-10-06T02:31:22.433Z,99.90
2017-10-06T02:33:52.169Z,99.90
2017-10-06T02:36:21.535Z,99.90
2017-10-06T02:38:50.477Z,99.90
2017-10-06T02:41:19.476Z,99.90
2017-10-06T02:43:48.869Z,99.90
2017-10-06T02:46:17.845Z,99.90
2017-10-06T02:48:46.806Z,99.90
2017-10-06T02:51:15.770Z,99.90
2017-10-06T02:53:45.528Z,99.90
2017-10-06T02:56:14.589Z,99.90
2017-10-06T02:58:44.316Z,99.90
2017-10-06T03:01:13.381Z,99.90
2017-10-06T03:03:42.477Z,99.90
2017-10-06T03:06:11.456Z,99.90
2017-10-06T03:08:40.420Z,99.90
2017-10-06T03:11:09.446Z,99.90
2017-10-06T03:13:38.795Z,99.90
2017-10-06T03:16:07.772Z,99.90
2017-10-06T03:18:37.490Z,99.90
2017-10-06T03:21:07.217Z,99.90
2017-10-06T03:23:36.569Z,99.90
2017-10-06T03:26:05.573Z,99.90
2017-10-06T03:28:34.946Z,99.90
2017-10-06T03:31:04.285Z,99.90
2017-10-06T03:33:34.031Z,99.90
2017-10-06T03:36:03.364Z,99.90
2017-10-06T03:38:32.331Z,99.90
2017-10-06T03:41:01.366Z,99.90
2017-10-06T03:43:30.736Z,99.90
2017-10-06T03:45:59.868Z,99.90
2017-10-06T03:48:28.963Z,99.90
2017-10-06T03:50:58.680Z,99.90
2017-10-06T03:53:28.461Z,99.90
2017-10-06T03:55:57.483Z,99.90
2017-10-06T03:58:27.247Z,99.90
2017-10-06T04:00:56.573Z,99.90
2017-10-06T04:03:25.530Z,99.90
2017-10-06T04:05:54.501Z,99.90
2017-10-06T04:08:23.896Z,99.90
2017-10-06T04:10:53.621Z,99.90
2017-10-06T04:13:22.593Z,99.90
2017-10-06T04:15:51.607Z,99.90
2017-10-06T04:18:20.582Z,99.90
2017-10-06T04:20:49.523Z,99.90
2017-10-06T04:23:18.525Z,99.90
2017-10-06T04:25:47.473Z,99.90
2017-10-06T04:28:16.821Z,99.90
2017-10-06T04:30:45.778Z,99.90
2017-10-06T04:33:14.787Z,99.90
2017-10-06T04:35:43.776Z,99.90
2017-10-06T04:38:13.488Z,99.90
2017-10-06T04:40:42.856Z,99.90
2017-10-06T04:43:12.591Z,99.90
2017-10-06T04:45:41.590Z,99.90
2017-10-06T04:48:10.579Z,99.90
2017-10-06T04:50:39.548Z,99.90
2017-10-06T04:53:08.901Z,99.90
2017-10-06T04:55:38.641Z,99.90
2017-10-06T04:58:07.991Z,99.90
2017-10-06T05:00:36.961Z,99.90
2017-10-06T05:03:06.399Z,99.90
2017-10-06T05:05:35.395Z,99.90
2017-10-06T05:08:05.106Z,99.90
2017-10-06T05:10:34.911Z,99.90
2017-10-06T05:13:03.860Z,99.90
2017-10-06T05:15:33.602Z,99.90
2017-10-06T05:18:02.560Z,99.90
2017-10-06T05:20:31.947Z,99.90
2017-10-06T05:23:01.306Z,99.90
2017-10-06T05:25:30.268Z,99.90
2017-10-06T05:27:59.602Z,99.90
2017-10-06T05:30:29.348Z,99.90
2017-10-06T05:32:58.697Z,99.90
2017-10-06T05:35:27.697Z,99.90
2017-10-06T05:37:56.689Z,99.90
2017-10-06T05:40:26.450Z,99.90
2017-10-06T05:42:55.382Z,99.90
2017-10-06T05:45:24.348Z,99.90
2017-10-06T05:47:53.717Z,99.90
2017-10-06T05:50:22.684Z,99.90
2017-10-06T05:52:52.396Z,99.90
2017-10-06T05:55:22.188Z,99.90
2017-10-06T05:57:51.537Z,99.90
2017-10-06T06:00:21.418Z,99.90
2017-10-06T06:02:50.446Z,99.90
2017-10-06T06:05:19.865Z,99.90
2017-10-06T06:07:49.575Z,99.90
2017-10-06T06:10:18.587Z,99.90
2017-10-06T06:12:47.541Z,99.90
2017-10-06T06:15:16.588Z,99.90
2017-10-06T06:17:46.332Z,99.90
2017-10-06T06:20:15.697Z,99.90
2017-10-06T06:22:45.446Z,99.90
2017-10-06T06:25:14.813Z,99.90
2017-10-06T06:27:44.568Z,99.90
2017-10-06T06:30:13.537Z,99.90
2017-10-06T06:32:42.544Z,99.90
2017-10-06T06:35:11.525Z,99.90
2017-10-06T06:37:40.481Z,99.90
2017-10-06T06:40:09.448Z,99.90
2017-10-06T06:42:38.440Z,99.90
2017-10-06T06:45:07.500Z,99.90
2017-10-06T06:47:36.440Z,99.90
2017-10-06T06:50:05.413Z,99.90
2017-10-06T06:52:34.362Z,99.90
2017-10-06T06:55:03.949Z,99.90
2017-10-06T06:57:33.284Z,99.90
2017-10-06T07:00:02.648Z,99.90
2017-10-06T07:02:32.455Z,99.90
2017-10-06T07:05:02.208Z,99.90
2017-10-06T07:07:31.191Z,99.90
2017-10-06T07:10:01.305Z,99.90
2017-10-06T07:12:30.720Z,99.90
2017-10-06T07:14:59.704Z,99.90
2017-10-06T07:17:28.705Z,99.90
2017-10-06T07:19:57.661Z,99.90
2017-10-06T07:22:26.689Z,99.90
2017-10-06T07:24:55.673Z,99.90
2017-10-06T07:27:24.637Z,99.90
2017-10-06T07:29:54.052Z,99.90
2017-10-06T07:32:23.777Z,99.90
2017-10-06T07:34:53.534Z,99.90
2017-10-06T07:37:22.528Z,99.90
2017-10-06T07:39:52.296Z,99.90
2017-10-06T07:42:21.291Z,99.90
2017-10-06T07:44:50.247Z,99.90
2017-10-06T07:47:19.961Z,99.90
2017-10-06T07:49:48.965Z,99.90
2017-10-06T07:52:18.022Z,99.90
2017-10-06T07:54:47.777Z,99.90
2017-10-06T07:57:16.986Z,99.90
2017-10-06T07:59:46.388Z,99.90
2017-10-06T08:02:15.337Z,99.90
2017-10-06T08:04:44.720Z,99.90
2017-10-06T08:07:13.660Z,99.90
2017-10-06T08:09:42.668Z,99.90
2017-10-06T08:12:11.667Z,99.90
2017-10-06T08:14:40.636Z,99.90
2017-10-06T08:17:09.647Z,99.90
2017-10-06T08:19:38.644Z,99.90
2017-10-06T08:22:08.418Z,99.90
2017-10-06T08:24:37.372Z,99.90
2017-10-06T08:27:07.144Z,99.90
2017-10-06T08:29:36.119Z,99.90
2017-10-06T08:32:05.132Z,99.90
2017-10-06T08:34:34.496Z,99.90
2017-10-06T08:37:03.492Z,99.90
2017-10-06T08:39:32.464Z,99.90
2017-10-06T08:42:01.839Z,99.90
2017-10-06T08:44:30.792Z,99.90
2017-10-06T08:46:59.778Z,99.90
2017-10-06T08:49:28.755Z,99.90
2017-10-06T08:51:57.724Z,99.90
2017-10-06T08:54:27.467Z,99.90
2017-10-06T08:56:56.417Z,99.90
2017-10-06T08:59:26.193Z,99.90
2017-10-06T09:01:55.172Z,99.90
2017-10-06T09:04:24.522Z,99.90
2017-10-06T09:06:53.919Z,99.90
2017-10-06T09:09:23.357Z,99.90
2017-10-06T09:11:52.730Z,99.90
2017-10-06T09:14:22.535Z,99.90
2017-10-06T09:16:53.074Z,99.90
2017-10-06T09:19:22.769Z,99.90
2017-10-06T09:21:52.133Z,99.90
2017-10-06T09:24:21.140Z,99.90
2017-10-06T09:26:50.512Z,99.90
2017-10-06T09:29:19.480Z,99.90
2017-10-06T09:31:48.552Z,99.90
2017-10-06T09:34:17.481Z,99.90
2017-10-06T09:36:46.637Z,99.90
2017-10-06T09:39:15.576Z,99.90
2017-10-06T09:41:44.548Z,99.90
2017-10-06T09:44:13.509Z,99.90
2017-10-06T09:46:42.887Z,99.90
2017-10-06T09:49:12.620Z,99.90
2017-10-06T09:51:43.082Z,99.90
2017-10-06T09:54:12.052Z,99.90
2017-10-06T09:56:41.833Z,99.90
2017-10-06T09:59:10.795Z,99.90
2017-10-06T10:01:40.331Z,99.90
2017-10-06T10:04:09.273Z,99.90
2017-10-06T10:06:38.284Z,99.90
2017-10-06T10:09:07.225Z,99.90
2017-10-06T10:11:36.593Z,99.90
2017-10-06T10:14:06.304Z,99.90
2017-10-06T10:16:35.279Z,99.30
2017-10-06T10:19:04.216Z,99.80
2017-10-06T10:21:33.961Z,99.80
2017-10-06T10:24:04.491Z,99.40
2017-10-06T10:26:33.852Z,97.50
2017-10-06T10:29:02.824Z,96.80
2017-10-06T10:31:31.784Z,95.60
2017-10-06T10:34:00.772Z,95.40
2017-10-06T10:36:29.904Z,94.70
2017-10-06T10:39:00.353Z,94.90
2017-10-06T10:41:30.099Z,95.30
2017-10-06T10:43:59.840Z,95.50
2017-10-06T10:46:28.812Z,96.60
2017-10-06T10:48:58.536Z,96.50
2017-10-06T10:51:28.052Z,98.20
2017-10-06T10:53:57.756Z,99.30
2017-10-06T10:56:26.733Z,99.90
2017-10-06T10:58:55.682Z,99.90
2017-10-06T11:01:24.671Z,99.90
2017-10-06T11:03:53.642Z,99.90
2017-10-06T11:06:23.394Z,99.90
2017-10-06T11:08:52.346Z,99.90
2017-10-06T11:11:22.159Z,99.90
2017-10-06T11:13:52.065Z,99.90
2017-10-06T11:16:21.411Z,99.90
2017-10-06T11:18:50.424Z,99.90
2017-10-06T11:21:19.403Z,99.90
2017-10-06T11:23:49.121Z,99.90
2017-10-06T11:26:18.870Z,99.90
2017-10-06T11:28:48.598Z,99.90
2017-10-06T11:31:17.571Z,99.90
2017-10-06T11:33:47.277Z,99.90
2017-10-06T11:36:17.014Z,99.00
2017-10-06T11:38:45.996Z,99.90
2017-10-06T11:41:15.725Z,99.90
2017-10-06T11:43:44.664Z,99.90
2017-10-06T11:46:13.760Z,99.90
2017-10-06T11:48:42.706Z,99.90
2017-10-06T11:51:11.682Z,99.90
2017-10-06T11:53:40.634Z,99.90
2017-10-06T11:56:09.617Z,99.90
2017-10-06T11:58:38.957Z,99.90
2017-10-06T12:01:08.345Z,99.90
2017-10-06T12:03:37.713Z,99.90
2017-10-06T12:06:08.028Z,99.90
2017-10-06T12:08:37.400Z,99.90
2017-10-06T12:11:06.758Z,99.90
2017-10-06T12:13:35.774Z,99.90
2017-10-06T12:16:05.554Z,99.90
2017-10-06T12:18:34.578Z,99.90
2017-10-06T12:21:04.305Z,99.90
2017-10-06T12:23:33.384Z,99.90
2017-10-06T12:26:02.713Z,98.10
2017-10-06T12:28:31.693Z,96.80
2017-10-06T12:31:00.673Z,96.40
2017-10-06T12:33:29.720Z,97.20
2017-10-06T12:35:59.353Z,93.30
2017-10-06T12:38:29.331Z,93.30
2017-10-06T12:40:58.322Z,93.80
2017-10-06T12:43:27.325Z,96.80
2017-10-06T12:45:56.237Z,96.70
2017-10-06T12:48:25.207Z,98.70
2017-10-06T12:50:54.923Z,98.90
2017-10-06T12:53:23.947Z,99.90
2017-10-06T12:55:53.293Z,99.90
2017-10-06T12:58:22.649Z,99.90
2017-10-06T13:00:52.353Z,99.90
2017-10-06T13:16:27.400Z,99.90
2017-10-06T13:18:56.768Z,99.90
2017-10-06T13:21:26.502Z,98.60
2017-10-06T13:23:55.445Z,99.40
2017-10-06T13:26:24.428Z,99.90
2017-10-06T13:28:53.355Z,98.40
2017-10-06T13:31:22.432Z,95.10
2017-10-06T13:33:51.425Z,92.20
2017-10-06T13:36:20.375Z,91.10
2017-10-06T13:38:49.408Z,86.60
2017-10-06T13:41:18.381Z,83.30
2017-10-06T13:43:47.740Z,86.40
2017-10-06T13:46:16.711Z,91.20
2017-10-06T13:48:45.677Z,94.20
2017-10-06T13:51:15.439Z,96.20
2017-10-06T13:53:44.809Z,97.00
2017-10-06T13:56:14.552Z,96.70
2017-10-06T13:58:43.940Z,95.50
2017-10-06T14:01:12.956Z,95.20
2017-10-06T14:03:43.129Z,96.20
2017-10-06T14:06:12.502Z,96.60
2017-10-06T14:08:41.458Z,96.50
2017-10-06T14:11:10.454Z,96.90
2017-10-06T14:13:39.423Z,97.30
2017-10-06T14:16:08.399Z,98.00
2017-10-06T14:18:38.141Z,97.70
2017-10-06T14:21:08.311Z,98.00
2017-10-06T14:23:37.651Z,98.20
2017-10-06T14:26:06.753Z,98.70
2017-10-06T14:28:35.692Z,95.10
2017-10-06T14:31:05.424Z,94.60
2017-10-06T14:33:34.385Z,95.80
2017-10-06T14:36:03.495Z,96.80
2017-10-06T14:38:32.828Z,97.00
2017-10-06T14:41:01.812Z,94.90
2017-10-06T14:43:31.318Z,94.20
2017-10-06T14:46:00.284Z,94.40
2017-10-06T14:48:30.010Z,96.30
2017-10-06T14:50:58.983Z,96.50
2017-10-06T14:53:29.006Z,96.40
2017-10-06T14:55:58.756Z,97.20
2017-10-06T14:58:27.696Z,97.10
2017-10-06T15:00:57.460Z,97.20
2017-10-06T15:03:26.421Z,97.60
2017-10-06T15:05:55.385Z,97.50
2017-10-06T15:08:24.725Z,97.00
2017-10-06T15:10:53.755Z,96.60
2017-10-06T15:13:23.444Z,96.40
2017-10-06T15:15:52.413Z,95.30
2017-10-06T15:18:21.355Z,95.60
2017-10-06T15:20:50.325Z,96.10
2017-10-06T15:23:19.356Z,96.00
2017-10-06T15:25:48.315Z,96.40
2017-10-06T15:28:18.030Z,98.60
2017-10-06T15:30:47.032Z,98.10
2017-10-06T15:33:16.400Z,98.90
2017-10-06T15:35:46.772Z,99.10
2017-10-06T15:38:15.739Z,99.60
2017-10-06T15:40:44.688Z,99.70
2017-10-06T15:43:13.676Z,99.30
2017-10-06T15:45:42.620Z,99.60
2017-10-06T15:48:11.570Z,99.30
2017-10-06T15:50:40.521Z,99.30
2017-10-06T15:53:09.553Z,99.60
2017-10-06T15:55:38.525Z,99.60
2017-10-06T15:58:07.514Z,99.50
2017-10-06T16:00:37.264Z,99.90
2017-10-06T16:03:06.235Z,99.90
2017-10-06T16:05:35.176Z,99.90
2017-10-06T16:08:04.576Z,99.80
2017-10-06T16:10:34.351Z,99.80
2017-10-06T16:13:03.350Z,99.90
2017-10-06T16:15:32.297Z,99.90
2017-10-06T16:18:02.047Z,99.90
2017-10-06T16:20:31.398Z,99.90
2017-10-06T16:23:01.165Z,99.80
2017-10-06T16:25:30.912Z,99.40
2017-10-06T16:28:02.815Z,99.60
2017-10-06T16:30:32.521Z,99.10
2017-10-06T16:33:01.464Z,98.80
2017-10-06T16:35:30.447Z,99.00
2017-10-06T16:37:59.419Z,99.20
2017-10-06T16:40:28.383Z,99.20
2017-10-06T16:42:57.389Z,99.50
2017-10-06T16:45:26.788Z,99.60
2017-10-06T16:48:00.200Z,99.60
2017-10-06T16:50:29.148Z,99.70
2017-10-06T16:52:58.581Z,99.70
2017-10-06T16:55:27.639Z,99.80
2017-10-06T16:57:56.664Z,99.90
2017-10-06T17:00:25.635Z,99.90
2017-10-06T17:02:54.586Z,99.90
2017-10-06T17:05:24.062Z,99.90
2017-10-06T17:07:53.898Z,99.90
2017-10-06T17:10:22.868Z,99.90
2017-10-06T17:12:52.675Z,99.70
2017-10-06T17:15:21.632Z,99.80
2017-10-06T17:17:50.686Z,99.90
2017-10-06T17:20:19.628Z,99.90
2017-10-06T17:22:48.641Z,99.90
2017-10-06T17:25:18.053Z,99.80
2017-10-06T17:27:47.418Z,99.50
2017-10-06T17:30:16.817Z,99.70
2017-10-06T17:32:45.838Z,99.60
2017-10-06T17:35:14.783Z,99.70
2017-10-06T17:37:43.743Z,99.40
2017-10-06T17:40:14.216Z,99.90
2017-10-06T17:42:44.067Z,99.40
2017-10-06T17:45:13.775Z,99.30
2017-10-06T17:47:43.521Z,99.00
2017-10-06T17:50:12.497Z,99.50
2017-10-06T17:52:41.508Z,99.40
2017-10-06T17:55:11.245Z,99.20
2017-10-06T17:57:40.202Z,99.10
2017-10-06T18:00:09.956Z,98.70
2017-10-06T18:02:38.948Z,98.70
2017-10-06T18:05:08.726Z,99.00
2017-10-06T18:07:37.725Z,98.60
2017-10-06T18:10:07.540Z,98.60
2017-10-06T18:12:36.506Z,98.60
2017-10-06T18:15:06.251Z,99.00
2017-10-06T18:17:35.722Z,98.90
2017-10-06T18:20:04.684Z,98.50
2017-10-06T18:22:33.671Z,98.30
2017-10-06T18:25:02.646Z,98.10
2017-10-06T18:27:31.609Z,98.20
2017-10-06T18:30:00.584Z,98.20
2017-10-06T18:32:30.304Z,98.90
2017-10-06T18:34:59.680Z,98.70
2017-10-06T18:37:28.689Z,98.70
2017-10-06T18:39:58.455Z,99.40
2017-10-06T18:42:27.417Z,99.10
2017-10-06T18:44:56.475Z,99.30
2017-10-06T18:47:25.474Z,99.20
2017-10-06T18:49:55.286Z,99.70
2017-10-06T18:52:24.711Z,99.30
2017-10-06T18:54:54.434Z,99.50
2017-10-06T18:57:23.502Z,99.50
2017-10-06T18:59:53.296Z,99.70
2017-10-06T19:02:22.663Z,99.80
2017-10-06T19:04:51.601Z,99.90
2017-10-06T19:07:20.606Z,99.90
2017-10-06T19:09:49.595Z,99.90
2017-10-06T19:12:18.572Z,99.90
2017-10-06T19:14:48.311Z,99.90
2017-10-06T19:17:17.425Z,99.90
2017-10-06T19:19:46.397Z,99.80
2017-10-06T19:22:15.441Z,99.50
2017-10-06T19:24:44.444Z,99.80
2017-10-06T19:27:14.221Z,99.90
2017-10-06T19:29:43.632Z,99.90
2017-10-06T19:32:12.645Z,99.90
2017-10-06T19:34:41.736Z,99.90
2017-10-06T19:37:10.701Z,99.90
2017-10-06T19:39:40.512Z,99.90
2017-10-06T19:42:09.525Z,99.90
2017-10-06T19:44:38.566Z,99.90
2017-10-06T19:47:12.286Z,99.90
2017-10-06T19:49:41.357Z,99.90
2017-10-06T19:52:10.324Z,99.90
2017-10-06T20:04:58.608Z,99.90
2017-10-06T20:10:02.520Z,99.90
2017-10-06T20:17:41.294Z,99.90
2017-10-06T20:22:44.401Z,99.90
2017-10-06T20:25:13.783Z,99.90
2017-10-06T20:35:28.116Z,99.90
2017-10-06T20:43:07.658Z,99.90
2017-10-06T20:48:10.779Z,99.90
2017-10-06T20:53:13.904Z,99.90
2017-10-06T21:00:54.327Z,99.90
2017-10-06T21:03:23.271Z,99.90
2017-10-06T21:08:26.890Z,99.90
2017-10-06T21:26:23.992Z,99.90
2017-10-06T21:28:52.951Z,99.90
2017-10-06T21:33:56.283Z,99.90
2017-10-06T21:36:25.231Z,99.90
2017-10-06T21:38:54.199Z,99.90
2017-10-06T21:46:33.545Z,99.90
2017-10-06T21:56:45.343Z,99.90
2017-10-06T21:59:15.445Z,99.90
2017-10-06T22:04:19.396Z,99.90
2017-10-06T22:06:48.368Z,99.90
2017-10-06T22:09:17.737Z,99.90
2017-10-06T22:11:47.492Z,99.90
2017-10-06T22:16:51.485Z,99.90
2017-10-06T22:24:30.845Z,99.90
2017-10-06T22:32:09.628Z,99.90
2017-10-06T22:37:12.921Z,99.90
2017-10-06T22:44:51.033Z,99.90
2017-10-06T22:47:20.418Z,99.90
2017-10-06T22:54:58.541Z,99.90
2017-10-06T23:00:02.523Z,99.90
2017-10-06T23:02:31.493Z,99.90
2017-10-06T23:05:01.216Z,99.90
2017-10-06T23:07:30.174Z,99.90
2017-10-06T23:12:33.716Z,99.90
2017-10-06T23:17:37.766Z,99.90
2017-10-06T23:22:41.700Z,99.90
2017-10-06T23:25:10.653Z,99.90
2017-10-06T23:27:40.391Z,99.90
2017-10-06T23:35:19.105Z,99.90
2017-10-06T23:37:48.456Z,99.90
2017-10-06T23:42:53.139Z,99.90
2017-10-06T23:53:05.668Z,99.90
2017-10-06T23:55:34.636Z,99.90
